createdAt,value
2022-08-05T00:00:48.343Z,8.15
2022-08-05T00:03:15.741Z,6.68
2022-08-05T00:06:04.579Z,7.25
2022-08-05T00:08:34.835Z,8.75
2022-08-05T00:11:00.582Z,7.07
2022-08-05T00:13:39.300Z,6.18
2022-08-05T00:16:06.260Z,6.65
2022-08-05T00:18:32.386Z,7.05
2022-08-05T00:20:56.919Z,6.82
2022-08-05T00:23:44.792Z,5.45
2022-08-05T00:26:04.915Z,8.55
2022-08-05T00:28:29.602Z,6.00
2022-08-05T00:30:53.709Z,8.65
2022-08-05T00:34:54.079Z,6.95
2022-08-05T00:36:16.637Z,5.72
2022-08-05T00:38:46.999Z,5.00
2022-08-05T00:41:11.564Z,6.57
2022-08-05T00:43:46.602Z,6.38
2022-08-05T00:46:11.465Z,7.38
2022-08-05T00:48:51.288Z,6.25
2022-08-05T00:51:51.067Z,7.63
2022-08-05T00:54:03.087Z,6.03
2022-08-05T00:56:27.416Z,6.13
2022-08-05T00:58:51.228Z,5.25
2022-08-05T01:01:42.904Z,6.22
2022-08-05T01:04:02.429Z,8.70
2022-08-05T01:06:35.453Z,5.70
2022-08-05T01:09:01.028Z,5.78
2022-08-05T01:11:37.176Z,4.47
2022-08-05T01:14:08.461Z,8.93
2022-08-05T01:16:40.220Z,9.13
2022-08-05T01:19:46.255Z,6.90
2022-08-05T01:22:24.139Z,8.52
2022-08-05T01:25:13.745Z,9.98
2022-08-05T01:28:18.337Z,11.73
2022-08-05T01:30:53.745Z,7.18
2022-08-05T01:33:25.167Z,6.70
2022-08-05T01:35:53.431Z,10.45
2022-08-05T01:38:27.119Z,6.72
2022-08-05T01:40:54.465Z,9.80
2022-08-05T01:43:22.444Z,5.85
2022-08-05T01:45:54.057Z,7.07
2022-08-05T01:48:21.319Z,7.15
2022-08-05T01:50:51.304Z,8.90
2022-08-05T01:53:37.399Z,7.25
2022-08-05T01:56:04.861Z,7.32
2022-08-05T01:58:40.887Z,7.78
2022-08-05T02:01:15.988Z,7.53
2022-08-05T02:03:50.749Z,8.48
2022-08-05T02:06:33.566Z,8.77
2022-08-05T02:08:59.504Z,8.90
2022-08-05T02:11:33.477Z,9.32
2022-08-05T02:14:06.845Z,9.32
2022-08-05T02:16:44.053Z,11.57
2022-08-05T02:19:14.233Z,9.52
2022-08-05T02:21:49.243Z,11.65
2022-08-05T02:24:23.053Z,7.32
2022-08-05T02:26:53.871Z,12.23
2022-08-05T02:29:26.078Z,11.55
2022-08-05T02:32:11.420Z,8.18
2022-08-05T02:34:37.550Z,10.15
2022-08-05T02:37:07.243Z,8.60
2022-08-05T02:39:36.639Z,12.90
2022-08-05T02:42:07.146Z,10.50
2022-08-05T02:44:37.489Z,8.05
2022-08-05T02:47:01.637Z,12.90
2022-08-05T02:49:27.489Z,9.45
2022-08-05T02:52:04.076Z,11.98
2022-08-05T02:54:36.091Z,12.18
2022-08-05T02:57:03.077Z,8.98
2022-08-05T02:59:30.994Z,13.55
2022-08-05T03:02:13.862Z,12.73
2022-08-05T03:04:39.087Z,9.90
2022-08-05T03:07:02.928Z,11.65
2022-08-05T03:09:37.570Z,12.25
2022-08-05T03:12:08.768Z,10.70
2022-08-05T03:14:32.448Z,10.77
2022-08-05T03:16:56.138Z,13.75
2022-08-05T03:19:34.637Z,10.63
2022-08-05T03:21:59.946Z,13.15
2022-08-05T03:24:30.289Z,12.18
2022-08-05T03:26:54.586Z,10.98
2022-08-05T03:29:18.792Z,13.85
2022-08-05T03:31:56.978Z,11.70
2022-08-05T03:34:25.460Z,9.07
2022-08-05T03:36:50.772Z,13.20
2022-08-05T03:39:20.024Z,9.95
2022-08-05T03:41:50.476Z,10.48
2022-08-05T03:44:19.790Z,12.43
2022-08-05T03:46:43.812Z,13.18
2022-08-05T03:49:09.974Z,9.60
2022-08-05T03:52:48.331Z,10.18
2022-08-05T03:55:53.047Z,13.75
2022-08-05T03:57:29.023Z,10.55
2022-08-05T04:00:10.056Z,18.88
2022-08-05T04:02:52.328Z,10.45
2022-08-05T04:05:23.550Z,13.38
2022-08-05T04:07:57.363Z,12.77
2022-08-05T04:10:22.780Z,13.75
2022-08-05T04:12:46.562Z,15.38
2022-08-05T04:15:15.667Z,15.77
2022-08-05T04:17:56.299Z,13.73
2022-08-05T04:20:23.396Z,11.93
2022-08-05T04:22:48.441Z,12.95
2022-08-05T04:25:12.588Z,14.55
2022-08-05T04:27:43.937Z,18.35
2022-08-05T04:30:21.266Z,18.75
2022-08-05T04:32:45.032Z,17.35
2022-08-05T04:35:17.578Z,18.13
2022-08-05T04:38:02.285Z,17.17
2022-08-05T04:40:28.916Z,20.30
2022-08-05T04:42:53.405Z,19.40
2022-08-05T04:45:31.383Z,19.42
2022-08-05T04:48:06.882Z,24.52
2022-08-05T04:51:02.925Z,20.92
2022-08-05T04:53:23.351Z,23.38
2022-08-05T04:56:14.682Z,25.58
2022-08-05T04:58:32.143Z,22.65
2022-08-05T05:00:56.424Z,23.42
2022-08-05T05:03:20.473Z,24.15
2022-08-05T05:06:36.516Z,20.60
2022-08-05T05:08:30.242Z,25.15
2022-08-05T05:10:56.674Z,22.73
2022-08-05T05:13:20.738Z,21.85
2022-08-05T05:15:57.220Z,22.05
2022-08-05T05:18:31.573Z,22.98
2022-08-05T05:20:57.270Z,22.92
2022-08-05T05:23:22.316Z,23.08
2022-08-05T05:25:46.630Z,20.73
2022-08-05T05:28:13.785Z,25.77
2022-08-05T05:30:37.657Z,20.52
2022-08-05T05:33:13.962Z,20.83
2022-08-05T05:35:42.610Z,19.60
2022-08-05T05:38:09.409Z,15.52
2022-08-05T05:40:37.790Z,15.27
2022-08-05T05:43:08.551Z,16.90
2022-08-05T05:45:34.291Z,17.88
2022-08-05T05:48:07.196Z,17.70
2022-08-05T05:50:32.959Z,15.02
2022-08-05T05:52:57.760Z,16.92
2022-08-05T05:55:23.220Z,16.33
2022-08-05T05:58:06.906Z,13.43
2022-08-05T06:00:34.448Z,13.63
2022-08-05T06:02:59.918Z,17.25
2022-08-05T06:05:24.954Z,13.65
2022-08-05T06:08:01.272Z,16.70
2022-08-05T06:10:29.392Z,14.90
2022-08-05T06:12:58.237Z,16.88
2022-08-05T06:15:23.665Z,15.27
2022-08-05T06:17:52.652Z,14.38
2022-08-05T06:20:21.406Z,14.23
2022-08-05T06:22:45.882Z,14.93
2022-08-05T06:25:24.305Z,10.45
2022-08-05T06:28:10.756Z,14.43
2022-08-05T06:30:33.130Z,12.93
2022-08-05T06:32:58.774Z,17.02
2022-08-05T06:36:03.380Z,9.82
2022-08-05T06:38:11.679Z,9.63
2022-08-05T06:40:35.637Z,10.98
2022-08-05T06:43:05.953Z,12.38
2022-08-05T06:46:06.528Z,9.73
2022-08-05T06:48:55.427Z,11.77
2022-08-05T06:51:23.779Z,10.90
2022-08-05T06:53:53.861Z,10.23
2022-08-05T06:56:26.377Z,12.07
2022-08-05T06:58:51.113Z,9.70
2022-08-05T07:01:14.699Z,11.38
2022-08-05T07:03:45.865Z,11.07
2022-08-05T07:06:14.302Z,10.93
2022-08-05T07:08:39.022Z,15.85
2022-08-05T07:11:06.232Z,11.88
2022-08-05T07:13:59.888Z,11.52
2022-08-05T07:18:00.691Z,10.93
2022-08-05T07:20:05.017Z,14.15
2022-08-05T07:22:09.639Z,9.73
2022-08-05T07:24:35.094Z,11.25
2022-08-05T07:27:08.808Z,10.15
2022-08-05T07:30:27.529Z,7.90
2022-08-05T07:32:16.233Z,8.43
2022-08-05T07:34:42.413Z,7.57
2022-08-05T07:37:06.270Z,8.40
2022-08-05T07:40:04.696Z,7.90
2022-08-05T07:42:19.438Z,7.88
2022-08-05T07:44:57.596Z,6.22
2022-08-05T07:47:25.795Z,8.15
2022-08-05T07:49:54.278Z,9.55
2022-08-05T07:52:18.412Z,7.07
2022-08-05T07:54:49.142Z,6.63
2022-08-05T07:57:41.545Z,7.57
2022-08-05T07:59:56.763Z,8.15
2022-08-05T08:05:03.605Z,8.23
2022-08-05T08:07:28.388Z,7.43
2022-08-05T08:09:55.119Z,10.07
2022-08-05T08:12:37.318Z,8.65
2022-08-05T08:15:03.586Z,9.40
2022-08-05T08:17:28.091Z,8.65
2022-08-05T08:20:43.361Z,6.63
2022-08-05T08:22:39.149Z,8.88
2022-08-05T08:25:16.463Z,9.18
2022-08-05T08:27:47.641Z,7.93
2022-08-05T08:30:29.976Z,8.13
2022-08-05T08:32:57.737Z,7.43
2022-08-05T08:35:21.779Z,7.10
2022-08-05T08:37:53.601Z,8.20
2022-08-05T08:40:22.324Z,7.22
2022-08-05T08:42:52.984Z,5.90
2022-08-05T08:45:26.057Z,6.80
2022-08-05T08:48:10.423Z,6.93
2022-08-05T08:51:22.613Z,7.47
2022-08-05T08:53:28.956Z,8.07
2022-08-05T08:56:03.203Z,6.13
2022-08-05T08:58:43.081Z,5.57
2022-08-05T09:01:11.020Z,7.70
2022-08-05T09:03:44.982Z,9.48
2022-08-05T09:06:12.124Z,8.75
2022-08-05T09:08:42.070Z,7.75
2022-08-05T09:11:12.122Z,7.32
2022-08-05T09:14:09.885Z,6.57
2022-08-05T09:16:22.242Z,7.03
2022-08-05T09:18:50.594Z,9.43
2022-08-05T09:21:20.919Z,6.05
2022-08-05T09:24:10.275Z,6.05
2022-08-05T09:26:34.012Z,5.72
2022-08-05T09:29:05.822Z,6.47
2022-08-05T09:32:51.325Z,4.47
2022-08-05T09:34:17.114Z,6.22
2022-08-05T09:36:45.655Z,5.93
2022-08-05T09:39:22.214Z,5.22
2022-08-05T09:42:01.495Z,10.20
2022-08-05T09:44:40.933Z,5.53
2022-08-05T09:47:15.653Z,7.78
2022-08-05T09:50:01.375Z,5.40
2022-08-05T09:52:29.247Z,4.53
2022-08-05T09:55:55.167Z,5.85
2022-08-05T09:57:47.690Z,4.03
2022-08-05T10:00:14.716Z,6.40
2022-08-05T10:02:40.936Z,6.32
2022-08-05T10:05:15.805Z,8.73
2022-08-05T10:08:10.831Z,6.05
2022-08-05T10:10:53.909Z,7.40
2022-08-05T10:13:44.109Z,4.57
2022-08-05T10:16:32.124Z,4.93
2022-08-05T10:18:58.172Z,5.70
2022-08-05T10:21:22.950Z,7.05
2022-08-05T10:23:55.430Z,6.32
2022-08-05T10:26:31.753Z,5.28
2022-08-05T10:28:56.671Z,4.28
2022-08-05T10:33:01.150Z,5.30
2022-08-05T10:34:07.177Z,4.82
2022-08-05T10:36:32.159Z,5.45
2022-08-05T10:39:10.330Z,4.82
2022-08-05T10:41:47.721Z,5.15
2022-08-05T10:44:14.830Z,5.05
2022-08-05T10:46:50.655Z,5.32
2022-08-05T10:49:18.481Z,7.65
2022-08-05T10:52:00.362Z,4.63
2022-08-05T10:54:29.884Z,5.38
2022-08-05T10:56:58.533Z,6.28
2022-08-05T11:00:03.390Z,4.78
2022-08-05T11:02:38.247Z,4.55
2022-08-05T11:04:59.143Z,5.85
2022-08-05T11:07:32.742Z,6.15
2022-08-05T11:10:27.219Z,6.88
2022-08-05T11:12:54.974Z,7.28
2022-08-05T11:15:22.573Z,8.48
2022-08-05T11:17:59.384Z,7.68
2022-08-05T11:20:39.160Z,7.38
2022-08-05T11:24:05.193Z,5.82
2022-08-05T11:26:28.545Z,4.97
2022-08-05T11:28:58.735Z,5.97
2022-08-05T11:31:56.714Z,5.03
2022-08-05T11:34:21.174Z,7.22
2022-08-05T11:36:52.998Z,6.13
2022-08-05T11:39:19.441Z,4.65
2022-08-05T11:41:57.888Z,6.38
2022-08-05T11:44:52.819Z,7.55
2022-08-05T11:47:21.996Z,8.20
2022-08-05T11:49:49.738Z,6.22
2022-08-05T11:52:16.160Z,5.57
2022-08-05T11:54:55.058Z,4.97
2022-08-05T11:57:25.546Z,4.70
2022-08-05T11:59:52.149Z,4.82
2022-08-05T12:02:30.637Z,6.78
2022-08-05T12:04:59.511Z,7.30
2022-08-05T12:08:09.186Z,6.13
2022-08-05T12:10:11.613Z,6.35
2022-08-05T12:12:35.999Z,6.20
2022-08-05T12:15:01.110Z,5.72
2022-08-05T12:18:02.560Z,5.53
2022-08-05T12:20:25.469Z,5.50
2022-08-05T12:22:51.795Z,4.07
2022-08-05T12:25:16.530Z,4.03
2022-08-05T12:27:53.221Z,4.18
2022-08-05T12:30:19.092Z,3.40
2022-08-05T12:32:50.396Z,5.75
2022-08-05T12:35:16.901Z,5.68
2022-08-05T12:37:48.006Z,8.43
2022-08-05T12:40:26.554Z,6.15
2022-08-05T12:42:52.495Z,5.55
2022-08-05T12:45:18.637Z,5.38
2022-08-05T12:48:01.484Z,5.45
2022-08-05T12:50:31.007Z,3.33
2022-08-05T12:52:59.646Z,8.15
2022-08-05T12:55:26.467Z,4.57
2022-08-05T12:58:39.087Z,5.75
2022-08-05T13:02:01.960Z,4.38
2022-08-05T13:03:27.052Z,3.08
2022-08-05T13:05:56.510Z,2.33
2022-08-05T13:08:20.150Z,5.57
2022-08-05T13:10:50.235Z,2.85
2022-08-05T13:14:05.202Z,2.58
2022-08-05T13:16:00.108Z,3.05
2022-08-05T13:18:24.101Z,2.88
2022-08-05T13:20:49.218Z,4.85
2022-08-05T13:23:13.590Z,4.05
2022-08-05T13:25:52.486Z,4.93
2022-08-05T13:28:22.776Z,3.58
2022-08-05T13:30:46.347Z,4.60
2022-08-05T13:33:14.317Z,2.75
2022-08-05T13:35:57.383Z,2.97
2022-08-05T13:38:30.330Z,2.85
2022-08-05T13:40:55.041Z,2.83
2022-08-05T13:43:21.857Z,5.47
2022-08-05T13:45:45.992Z,3.40
2022-08-05T13:48:58.457Z,6.00
2022-08-05T13:50:56.358Z,3.17
2022-08-05T13:53:20.350Z,4.70
2022-08-05T13:55:49.237Z,2.03
2022-08-05T13:58:30.306Z,5.40
2022-08-05T14:00:54.712Z,5.30
2022-08-05T14:03:19.712Z,3.63
2022-08-05T14:06:04.787Z,4.07
2022-08-05T14:08:27.659Z,3.88
2022-08-05T14:11:03.277Z,3.03
2022-08-05T14:13:39.963Z,1.67
2022-08-05T14:16:07.848Z,3.78
2022-08-05T14:18:35.944Z,2.85
2022-08-05T14:22:06.984Z,4.57
2022-08-05T14:23:45.265Z,1.70
2022-08-05T14:26:08.897Z,1.73
2022-08-05T14:28:52.586Z,3.03
2022-08-05T14:31:17.182Z,3.60
2022-08-05T14:34:01.122Z,3.90
2022-08-05T14:36:25.030Z,5.63
2022-08-05T14:38:50.449Z,3.15
2022-08-05T14:41:14.881Z,2.45
2022-08-05T14:43:58.863Z,2.28
2022-08-05T14:46:27.225Z,2.08
2022-08-05T14:48:52.238Z,3.17
2022-08-05T14:51:17.962Z,3.35
2022-08-05T14:53:44.316Z,1.90
2022-08-05T14:56:09.126Z,1.92
2022-08-05T14:58:35.384Z,1.23
2022-08-05T15:01:00.432Z,3.55
2022-08-05T15:03:25.167Z,1.35
2022-08-05T15:06:07.858Z,2.53
2022-08-05T15:08:58.525Z,4.68
2022-08-05T15:11:17.705Z,3.10
2022-08-05T15:13:45.781Z,1.30
2022-08-05T15:16:10.995Z,2.35
2022-08-05T15:18:36.877Z,1.85
2022-08-05T15:21:07.154Z,2.63
2022-08-05T15:23:31.530Z,1.65
2022-08-05T15:26:02.724Z,1.42
2022-08-05T15:28:29.967Z,0.88
2022-08-05T15:30:53.573Z,2.00
2022-08-05T15:33:56.678Z,1.80
2022-08-05T15:36:03.404Z,2.63
2022-08-05T15:38:35.497Z,1.38
2022-08-05T15:41:23.005Z,3.17
2022-08-05T15:43:47.144Z,5.80
2022-08-05T15:46:11.026Z,4.35
2022-08-05T15:48:34.802Z,2.55
2022-08-05T15:51:03.496Z,4.38
2022-08-05T15:53:38.105Z,2.90
2022-08-05T15:56:05.706Z,1.42
2022-08-05T15:58:36.854Z,3.60
2022-08-05T16:01:18.365Z,3.85
2022-08-05T16:03:42.771Z,2.15
2022-08-05T16:15:09.471Z,1.75
2022-08-05T16:17:33.170Z,1.27
2022-08-05T16:20:04.758Z,2.08
2022-08-05T16:22:33.959Z,1.52
2022-08-05T16:24:57.897Z,1.50
2022-08-05T16:27:32.027Z,2.25
2022-08-05T16:30:23.172Z,2.70
2022-08-05T16:32:47.345Z,1.75
2022-08-05T16:35:11.196Z,2.65
2022-08-05T16:38:02.423Z,0.80
2022-08-05T16:40:28.549Z,2.15
2022-08-05T16:42:52.936Z,1.25
2022-08-05T16:46:03.478Z,1.95
2022-08-05T16:48:02.939Z,2.58
2022-08-05T16:50:26.919Z,0.70
2022-08-05T16:52:50.544Z,2.50
2022-08-05T16:55:14.468Z,3.00
2022-08-05T16:57:53.077Z,4.38
2022-08-05T17:00:25.953Z,2.45
2022-08-05T17:02:58.174Z,2.35
2022-08-05T17:05:22.039Z,2.85
2022-08-05T17:07:54.704Z,3.88
2022-08-05T17:10:18.749Z,1.58
2022-08-05T17:12:51.781Z,2.55
2022-08-05T17:15:19.598Z,2.90
2022-08-05T17:17:45.738Z,2.03
2022-08-05T17:20:18.528Z,1.50
2022-08-05T17:22:42.152Z,3.72
2022-08-05T17:25:22.171Z,3.25
2022-08-05T17:27:51.758Z,1.25
2022-08-05T17:30:19.154Z,1.27
2022-08-05T17:32:53.565Z,2.22
2022-08-05T17:35:20.638Z,4.35
2022-08-05T17:37:48.273Z,3.97
2022-08-05T17:40:15.438Z,1.25
2022-08-05T17:42:43.006Z,1.05
2022-08-05T17:45:20.409Z,1.65
2022-08-05T17:47:48.870Z,3.67
2022-08-05T17:50:22.756Z,3.25
2022-08-05T17:52:54.866Z,1.77
2022-08-05T17:55:18.914Z,2.22
2022-08-05T17:57:50.030Z,3.72
2022-08-05T18:00:15.380Z,6.18
2022-08-05T18:02:38.965Z,1.95
2022-08-05T18:05:07.777Z,3.08
2022-08-05T18:07:41.562Z,1.63
2022-08-05T18:10:09.897Z,2.33
2022-08-05T18:12:34.340Z,2.85
2022-08-05T18:14:58.031Z,1.95
2022-08-05T18:17:58.890Z,3.60
2022-08-05T18:20:14.139Z,2.38
2022-08-05T18:22:53.892Z,2.40
2022-08-05T18:25:22.123Z,2.47
2022-08-05T18:27:51.951Z,1.98
2022-08-05T18:30:16.637Z,1.80
2022-08-05T18:32:40.286Z,2.50
2022-08-05T18:35:17.232Z,2.40
2022-08-05T18:37:42.974Z,2.83
2022-08-05T18:41:49.925Z,5.20
2022-08-05T18:42:52.022Z,2.85
2022-08-05T18:45:15.932Z,3.80
2022-08-05T18:47:39.833Z,1.52
2022-08-05T18:50:22.425Z,1.65
2022-08-05T18:53:15.617Z,0.98
2022-08-05T18:55:43.098Z,2.97
2022-08-05T18:58:07.822Z,4.97
2022-08-05T19:00:40.247Z,3.70
2022-08-05T19:03:05.821Z,1.63
2022-08-05T19:06:11.040Z,2.20
2022-08-05T19:08:15.756Z,2.67
2022-08-05T19:10:43.099Z,2.03
2022-08-05T19:13:06.914Z,1.70
2022-08-05T19:15:58.740Z,2.40
2022-08-05T19:18:22.064Z,3.38
2022-08-05T19:20:48.325Z,2.47
2022-08-05T19:24:04.543Z,1.48
2022-08-05T19:26:02.215Z,1.35
2022-08-05T19:28:26.645Z,2.28
2022-08-05T19:30:51.482Z,1.38
2022-08-05T19:33:16.954Z,2.15
2022-08-05T19:35:56.396Z,2.88
2022-08-05T19:38:26.360Z,2.90
2022-08-05T19:40:50.370Z,5.07
2022-08-05T19:44:04.228Z,2.20
2022-08-05T19:46:01.844Z,2.92
2022-08-05T19:48:25.343Z,3.22
2022-08-05T19:50:49.338Z,2.35
2022-08-05T19:53:15.074Z,1.88
2022-08-05T19:56:15.202Z,2.38
2022-08-05T19:58:29.530Z,1.17
2022-08-05T20:00:53.779Z,2.88
2022-08-05T20:03:17.646Z,3.80
2022-08-05T20:05:50.343Z,1.95
2022-08-05T20:08:15.558Z,2.80
2022-08-05T20:10:39.168Z,1.88
2022-08-05T20:13:06.968Z,4.65
2022-08-05T20:15:51.569Z,2.72
2022-08-05T20:18:33.552Z,1.92
2022-08-05T20:21:00.037Z,4.10
2022-08-05T20:23:40.526Z,4.95
2022-08-05T20:26:08.152Z,3.97
2022-08-05T20:28:39.141Z,3.60
2022-08-05T20:31:05.481Z,4.20
2022-08-05T20:33:29.514Z,6.18
2022-08-05T20:35:57.165Z,2.13
2022-08-05T20:38:27.126Z,2.05
2022-08-05T20:40:52.562Z,4.75
2022-08-05T20:43:57.447Z,1.75
2022-08-05T20:46:06.790Z,2.30
2022-08-05T20:48:30.436Z,3.70
2022-08-05T20:50:54.384Z,5.38
2022-08-05T20:53:36.590Z,1.80
2022-08-05T20:56:08.230Z,3.03
2022-08-05T20:58:32.666Z,3.10
2022-08-05T21:00:56.834Z,1.45
2022-08-05T21:03:22.099Z,2.08
2022-08-05T21:05:53.810Z,5.13
2022-08-05T21:08:18.855Z,2.92
2022-08-05T21:10:48.674Z,4.53
2022-08-05T21:13:14.836Z,3.67
2022-08-05T21:15:44.539Z,2.65
2022-08-05T21:18:14.805Z,4.32
2022-08-05T21:20:40.277Z,2.33
2022-08-05T21:23:07.440Z,2.17
2022-08-05T21:25:34.048Z,3.15
2022-08-05T21:27:57.916Z,3.05
2022-08-05T21:30:21.959Z,2.50
2022-08-05T21:32:47.610Z,4.55
2022-08-05T21:35:18.330Z,4.75
2022-08-05T21:37:55.231Z,3.40
2022-08-05T21:40:18.910Z,4.55
2022-08-05T21:42:44.523Z,1.55
2022-08-05T21:45:10.701Z,3.13
2022-08-05T21:47:56.526Z,4.45
2022-08-05T21:50:19.846Z,2.25
2022-08-05T21:52:47.385Z,2.55
2022-08-05T21:55:12.973Z,2.47
2022-08-05T21:57:42.689Z,3.40
2022-08-05T22:00:11.158Z,4.88
2022-08-05T22:02:38.217Z,1.83
2022-08-05T22:05:01.798Z,2.20
2022-08-05T22:07:54.234Z,2.20
2022-08-05T22:10:13.158Z,3.22
2022-08-05T22:12:40.235Z,3.47
2022-08-05T22:15:16.344Z,4.82
2022-08-05T22:17:56.307Z,4.07
2022-08-05T22:20:23.684Z,2.30
2022-08-05T22:23:16.676Z,3.72
2022-08-05T22:26:09.648Z,3.88
2022-08-05T22:28:35.292Z,2.15
2022-08-05T22:31:05.253Z,6.07
2022-08-05T22:33:57.662Z,4.43
2022-08-05T22:36:15.218Z,4.68
2022-08-05T22:38:39.079Z,4.80
2022-08-05T22:41:09.513Z,3.03
2022-08-05T22:43:36.270Z,1.88
2022-08-05T22:46:03.506Z,3.40
2022-08-05T22:48:32.751Z,5.25
2022-08-05T22:50:56.430Z,4.03
2022-08-05T22:53:20.420Z,3.42
2022-08-05T22:55:56.964Z,3.35
2022-08-05T22:58:28.325Z,4.05
2022-08-05T23:00:52.337Z,4.13
2022-08-05T23:03:20.792Z,3.03
2022-08-05T23:06:04.507Z,3.00
2022-08-05T23:08:30.395Z,2.58
2022-08-05T23:10:55.005Z,2.65
2022-08-05T23:13:21.210Z,2.85
2022-08-05T23:15:44.918Z,2.53
2022-08-05T23:18:15.917Z,5.25
2022-08-05T23:20:40.052Z,2.60
2022-08-05T23:23:08.623Z,1.88
2022-08-05T23:25:51.778Z,4.05
2022-08-05T23:28:17.382Z,2.75
2022-08-05T23:30:43.782Z,3.13
2022-08-05T23:33:16.172Z,2.55
2022-08-05T23:35:49.332Z,3.15
2022-08-05T23:38:13.209Z,4.28
2022-08-05T23:40:37.934Z,4.55
2022-08-05T23:43:02.086Z,5.28
2022-08-05T23:45:47.026Z,1.45
2022-08-05T23:48:12.111Z,2.25
2022-08-05T23:50:35.789Z,3.40
2022-08-05T23:52:58.346Z,3.80
2022-08-05T23:55:22.431Z,2.72
2022-08-05T23:57:48.832Z,3.90
